Time;durP1;ratioP1;P1;durP2;ratioP2;P2;SDS_P1;SDS_P2;PMS_P1;PMS_P2;Temp;Humidity;BMP_temperature;BMP_pressure;BME280_temperature;BME280_humidity;BME280_pressure;Samples;Min_cycle;Max_cycle;Signal;HPM_P1;HPM_P2
2021/06/25 00:00:39;;;;;;;15.73;13.30;;;;;;;;;;4950551;28;20043;-82
2021/06/25 00:03:06;;;;;;;17.85;14.60;;;;;;;;;;4948688;28;20043;-81
2021/06/25 00:05:32;;;;;;;16.70;13.95;;;;;;;;;;4963345;28;20051;-82
2021/06/25 00:07:58;;;;;;;17.02;14.45;;;;;;;;;;4949902;28;20052;-81
2021/06/25 00:10:24;;;;;;;18.02;14.75;;;;;;;;;;4951796;28;20097;-81
2021/06/25 00:12:51;;;;;;;15.05;13.00;;;;;;;;;;4936408;28;20496;-87
2021/06/25 00:15:17;;;;;;;16.27;13.15;;;;;;;;;;4950738;28;20047;-81
2021/06/25 00:17:43;;;;;;;15.73;12.98;;;;;;;;;;4929299;29;20052;-81
2021/06/25 00:20:12;;;;;;;16.73;13.75;;;;;;;;;;4939595;28;20452;-82
2021/06/25 00:22:38;;;;;;;17.20;15.10;;;;;;;;;;4949519;28;20499;-81
2021/06/25 00:25:04;;;;;;;18.85;15.85;;;;;;;;;;4947128;28;20419;-81
2021/06/25 00:27:31;;;;;;;16.20;13.98;;;;;;;;;;4932062;28;20126;-82
2021/06/25 00:29:57;;;;;;;15.55;13.80;;;;;;;;;;4946796;28;20054;-81
2021/06/25 00:32:23;;;;;;;14.82;12.70;;;;;;;;;;4946103;28;20051;-81
2021/06/25 00:34:49;;;;;;;16.17;13.40;;;;;;;;;;4941986;28;20436;-83
2021/06/25 00:37:16;;;;;;;17.15;14.82;;;;;;;;;;4947506;28;20055;-82
2021/06/25 00:39:42;;;;;;;17.88;14.75;;;;;;;;;;4948840;28;20047;-81
2021/06/25 00:42:08;;;;;;;16.05;13.18;;;;;;;;;;4945589;28;20070;-81
2021/06/25 00:44:38;;;;;;;14.45;12.20;;;;;;;;;;4946577;28;20127;-82
2021/06/25 00:47:05;;;;;;;18.98;15.13;;;;;;;;;;4948885;29;20529;-81
2021/06/25 00:49:31;;;;;;;18.63;15.57;;;;;;;;;;4950403;28;20134;-81
2021/06/25 00:51:58;;;;;;;17.90;14.10;;;;;;;;;;4945957;28;20134;-81
2021/06/25 00:54:24;;;;;;;16.30;12.57;;;;;;;;;;4935364;28;20062;-82
2021/06/25 00:56:50;;;;;;;19.13;14.80;;;;;;;;;;4947238;28;20055;-82
2021/06/25 00:59:16;;;;;;;18.92;14.20;;;;;;;;;;4931445;29;20051;-81
2021/06/25 01:01:43;;;;;;;19.42;14.93;;;;;;;;;;4949789;28;20102;-81
2021/06/25 01:04:09;;;;;;;18.33;13.95;;;;;;;;;;4948066;28;20055;-81
2021/06/25 01:06:37;;;;;;;19.63;15.00;;;;;;;;;;4946930;28;20055;-81
2021/06/25 01:09:04;;;;;;;14.35;12.15;;;;;;;;;;4946241;28;20074;-81
2021/06/25 01:11:31;;;;;;;13.68;10.85;;;;;;;;;;4948682;28;20467;-84
2021/06/25 01:13:58;;;;;;;16.92;12.77;;;;;;;;;;4945833;28;20047;-82
2021/06/25 01:16:25;;;;;;;14.65;12.48;;;;;;;;;;4947844;28;20043;-82
2021/06/25 01:18:51;;;;;;;15.98;12.82;;;;;;;;;;4948275;28;20079;-82
2021/06/25 01:21:17;;;;;;;16.17;13.18;;;;;;;;;;4948950;28;20085;-81
2021/06/25 01:23:44;;;;;;;16.90;13.38;;;;;;;;;;4951802;28;20046;-82
2021/06/25 01:26:10;;;;;;;15.85;13.48;;;;;;;;;;4961369;28;20047;-81
2021/06/25 01:28:37;;;;;;;18.13;14.18;;;;;;;;;;4943103;28;20459;-81
2021/06/25 01:31:04;;;;;;;18.08;14.85;;;;;;;;;;4943416;28;20063;-81
2021/06/25 01:33:32;;;;;;;18.27;15.32;;;;;;;;;;4944024;28;20098;-82
2021/06/25 01:35:58;;;;;;;16.88;13.77;;;;;;;;;;4949382;28;20047;-82
2021/06/25 01:38:25;;;;;;;17.83;15.10;;;;;;;;;;4932037;29;20047;-81
2021/06/25 01:40:51;;;;;;;16.92;13.77;;;;;;;;;;4932320;28;20039;-82
2021/06/25 01:43:18;;;;;;;18.23;15.02;;;;;;;;;;4948782;28;20842;-81
2021/06/25 01:45:44;;;;;;;17.70;14.05;;;;;;;;;;4947646;28;20146;-81
2021/06/25 01:48:11;;;;;;;19.02;14.07;;;;;;;;;;4944368;28;20054;-82
2021/06/25 01:50:39;;;;;;;13.23;11.20;;;;;;;;;;4947460;28;20142;-83
2021/06/25 01:53:07;;;;;;;16.05;13.02;;;;;;;;;;4919510;29;20048;-81
2021/06/25 01:55:41;;;;;;;14.70;12.38;;;;;;;;;;4947227;28;20058;-80
2021/06/25 01:58:11;;;;;;;14.95;12.63;;;;;;;;;;4950823;28;20150;-81
2021/06/25 02:00:42;;;;;;;14.98;12.82;;;;;;;;;;4962772;28;20068;-82
2021/06/25 02:03:08;;;;;;;14.57;10.95;;;;;;;;;;4951894;28;20194;-81
2021/06/25 02:05:35;;;;;;;12.98;11.07;;;;;;;;;;4951044;28;20052;-81
2021/06/25 02:08:01;;;;;;;14.05;11.25;;;;;;;;;;4964422;28;20043;-81
2021/06/25 02:10:28;;;;;;;14.48;12.43;;;;;;;;;;4952621;28;20130;-82
2021/06/25 02:12:54;;;;;;;14.02;11.95;;;;;;;;;;4951048;28;20051;-87
2021/06/25 02:15:20;;;;;;;13.20;11.18;;;;;;;;;;4950856;28;20471;-81
2021/06/25 02:17:47;;;;;;;14.65;12.15;;;;;;;;;;4953994;28;20504;-81
2021/06/25 02:20:13;;;;;;;14.23;12.38;;;;;;;;;;4948844;28;20055;-81
2021/06/25 02:22:39;;;;;;;15.57;11.80;;;;;;;;;;4936943;28;20051;-82
2021/06/25 02:25:08;;;;;;;14.85;12.32;;;;;;;;;;4950634;28;20130;-81
2021/06/25 02:27:34;;;;;;;14.05;11.90;;;;;;;;;;4963542;28;20086;-82
2021/06/25 02:30:01;;;;;;;15.98;12.95;;;;;;;;;;4954993;28;20398;-82
2021/06/25 02:32:27;;;;;;;19.08;14.38;;;;;;;;;;4950190;28;20044;-80
2021/06/25 02:34:54;;;;;;;14.85;11.55;;;;;;;;;;4952351;28;20134;-82
2021/06/25 02:37:20;;;;;;;14.00;11.30;;;;;;;;;;4948942;28;20043;-81
2021/06/25 02:39:46;;;;;;;11.88;10.02;;;;;;;;;;4952706;28;20064;-82
2021/06/25 02:42:12;;;;;;;12.07;10.25;;;;;;;;;;4949807;28;20049;-81
2021/06/25 02:44:38;;;;;;;17.02;12.80;;;;;;;;;;4933730;29;20051;-81
2021/06/25 02:47:05;;;;;;;14.68;11.95;;;;;;;;;;4949799;28;20135;-82
2021/06/25 02:49:31;;;;;;;14.05;11.43;;;;;;;;;;4934467;29;20051;-81
2021/06/25 02:51:57;;;;;;;16.10;13.57;;;;;;;;;;4950039;28;20047;-86
2021/06/25 02:54:23;;;;;;;15.27;12.93;;;;;;;;;;4953178;28;20055;-82
2021/06/25 02:56:50;;;;;;;15.68;12.73;;;;;;;;;;4966689;28;20048;-81
2021/06/25 02:59:16;;;;;;;15.75;13.05;;;;;;;;;;4950899;28;20047;-82
2021/06/25 03:01:42;;;;;;;15.40;13.27;;;;;;;;;;4952745;28;20043;-81
2021/06/25 03:04:08;;;;;;;17.27;14.88;;;;;;;;;;4949814;28;20047;-82
2021/06/25 03:06:38;;;;;;;12.48;10.48;;;;;;;;;;4958036;28;20057;-81
2021/06/25 03:09:04;;;;;;;14.70;12.38;;;;;;;;;;4959884;28;20071;-82
2021/06/25 03:11:30;;;;;;;14.82;12.25;;;;;;;;;;4943038;28;20134;-83
2021/06/25 03:13:57;;;;;;;15.45;13.05;;;;;;;;;;4951492;28;20095;-83
2021/06/25 03:16:23;;;;;;;16.25;13.85;;;;;;;;;;4951053;28;20054;-82
2021/06/25 03:18:49;;;;;;;16.67;13.57;;;;;;;;;;4950781;28;20078;-83
2021/06/25 03:21:17;;;;;;;14.82;12.40;;;;;;;;;;4949946;28;20052;-81
2021/06/25 03:23:43;;;;;;;15.40;13.68;;;;;;;;;;4951183;28;20517;-81
2021/06/25 03:26:09;;;;;;;14.02;12.00;;;;;;;;;;4951071;28;20110;-81
2021/06/25 03:28:35;;;;;;;19.10;14.57;;;;;;;;;;4951380;28;20126;-81
2021/06/25 03:31:02;;;;;;;13.73;11.65;;;;;;;;;;4949958;28;20047;-82
2021/06/25 03:33:28;;;;;;;15.35;12.88;;;;;;;;;;4950697;28;20086;-80
2021/06/25 03:35:55;;;;;;;14.32;11.40;;;;;;;;;;4950519;28;20452;-82
2021/06/25 03:38:21;;;;;;;14.32;12.10;;;;;;;;;;4950775;28;20061;-82
2021/06/25 03:40:47;;;;;;;15.35;13.07;;;;;;;;;;4951283;28;20166;-82
2021/06/25 03:43:13;;;;;;;15.45;12.55;;;;;;;;;;4947265;28;20129;-82
2021/06/25 03:45:39;;;;;;;14.80;12.27;;;;;;;;;;4940616;28;20440;-82
2021/06/25 03:48:06;;;;;;;13.65;11.18;;;;;;;;;;4949410;28;20130;-81
2021/06/25 03:50:35;;;;;;;14.68;12.48;;;;;;;;;;4949753;28;20051;-81
2021/06/25 03:53:02;;;;;;;14.95;12.63;;;;;;;;;;4949286;28;20051;-83
2021/06/25 03:55:28;;;;;;;14.55;12.05;;;;;;;;;;4964298;28;20054;-83
2021/06/25 03:57:54;;;;;;;13.10;11.60;;;;;;;;;;4955389;28;20135;-82
2021/06/25 04:00:20;;;;;;;17.98;15.10;;;;;;;;;;4948885;28;20777;-81
2021/06/25 04:02:47;;;;;;;17.73;13.73;;;;;;;;;;4952311;28;20053;-81
2021/06/25 04:05:13;;;;;;;15.43;13.18;;;;;;;;;;4934757;29;20411;-82
2021/06/25 04:07:41;;;;;;;17.15;14.20;;;;;;;;;;4949647;28;20571;-82
2021/06/25 04:10:08;;;;;;;13.52;11.43;;;;;;;;;;4947896;28;20882;-82
2021/06/25 04:12:35;;;;;;;15.30;12.20;;;;;;;;;;4950641;28;20047;-82
2021/06/25 04:15:01;;;;;;;12.98;11.55;;;;;;;;;;4949040;28;20051;-87
2021/06/25 04:17:27;;;;;;;21.85;16.13;;;;;;;;;;4949420;28;20043;-80
2021/06/25 04:19:54;;;;;;;16.95;13.85;;;;;;;;;;4950897;28;20051;-82
2021/06/25 04:22:20;;;;;;;19.20;14.18;;;;;;;;;;4945559;28;20074;-83
2021/06/25 04:24:47;;;;;;;16.10;13.45;;;;;;;;;;4950794;28;20086;-82
2021/06/25 04:27:13;;;;;;;14.93;12.18;;;;;;;;;;4948035;28;20046;-84
2021/06/25 04:29:39;;;;;;;13.90;12.40;;;;;;;;;;4949675;28;20399;-84
2021/06/25 04:32:06;;;;;;;15.88;14.02;;;;;;;;;;4945541;28;20054;-82
2021/06/25 04:34:32;;;;;;;15.18;12.75;;;;;;;;;;4934055;28;20063;-81
2021/06/25 04:36:59;;;;;;;16.95;13.90;;;;;;;;;;4950277;28;20077;-87
2021/06/25 04:39:25;;;;;;;20.50;16.73;;;;;;;;;;4947368;28;20468;-82
2021/06/25 04:41:51;;;;;;;17.98;14.38;;;;;;;;;;4945720;28;20056;-81
2021/06/25 04:44:17;;;;;;;22.88;17.77;;;;;;;;;;4931565;28;20056;-81
2021/06/25 04:46:44;;;;;;;19.63;14.98;;;;;;;;;;4948061;28;20075;-82
2021/06/25 04:49:10;;;;;;;16.75;13.60;;;;;;;;;;4944154;28;20095;-81
2021/06/25 04:51:36;;;;;;;18.15;13.95;;;;;;;;;;4931015;28;20086;-81
2021/06/25 04:54:03;;;;;;;16.70;14.93;;;;;;;;;;4929388;29;20190;-81
2021/06/25 04:56:29;;;;;;;16.65;14.45;;;;;;;;;;4946021;28;20438;-80
2021/06/25 04:58:55;;;;;;;22.48;17.20;;;;;;;;;;4932391;28;20047;-81
2021/06/25 05:01:22;;;;;;;17.50;14.68;;;;;;;;;;4947623;28;20199;-81
2021/06/25 05:03:49;;;;;;;19.75;16.13;;;;;;;;;;4946434;28;20047;-82
2021/06/25 05:06:15;;;;;;;17.77;15.80;;;;;;;;;;4943984;28;20052;-81
2021/06/25 05:08:41;;;;;;;20.17;15.82;;;;;;;;;;4950028;28;20056;-81
2021/06/25 05:11:07;;;;;;;20.88;17.17;;;;;;;;;;4946166;28;20047;-83
2021/06/25 05:13:33;;;;;;;17.67;15.43;;;;;;;;;;4944306;28;20063;-80
2021/06/25 05:16:00;;;;;;;18.38;15.70;;;;;;;;;;4926353;28;20095;-84
2021/06/25 05:18:26;;;;;;;21.08;18.77;;;;;;;;;;4948486;28;20058;-80
2021/06/25 05:20:52;;;;;;;19.05;15.73;;;;;;;;;;4945464;28;20082;-81
2021/06/25 05:23:19;;;;;;;20.25;16.63;;;;;;;;;;4947315;28;20090;-80
2021/06/25 05:25:46;;;;;;;18.75;16.75;;;;;;;;;;4949279;28;20047;-80
2021/06/25 05:28:13;;;;;;;20.58;17.90;;;;;;;;;;4943749;28;20059;-80
2021/06/25 05:30:45;;;;;;;18.92;16.88;;;;;;;;;;4930281;28;20049;-80
2021/06/25 05:33:12;;;;;;;20.98;18.48;;;;;;;;;;4947973;28;20838;-82
2021/06/25 05:35:38;;;;;;;20.05;17.67;;;;;;;;;;4946077;28;20047;-82
2021/06/25 05:38:13;;;;;;;21.98;19.17;;;;;;;;;;4944825;28;20065;-82
2021/06/25 05:40:40;;;;;;;19.80;17.70;;;;;;;;;;4946673;28;20051;-79
2021/06/25 05:43:06;;;;;;;20.95;18.65;;;;;;;;;;4942699;28;20047;-83
2021/06/25 05:45:33;;;;;;;19.85;17.25;;;;;;;;;;4942106;28;20047;-82
2021/06/25 05:47:59;;;;;;;19.15;16.75;;;;;;;;;;4945716;28;20047;-82
2021/06/25 05:50:26;;;;;;;21.52;18.13;;;;;;;;;;4944941;28;20095;-83
2021/06/25 05:52:52;;;;;;;22.00;18.00;;;;;;;;;;4943523;28;20407;-82
2021/06/25 05:55:18;;;;;;;19.55;17.40;;;;;;;;;;4943709;28;20496;-82
2021/06/25 05:57:47;;;;;;;17.67;15.85;;;;;;;;;;4928711;29;20047;-82
2021/06/25 06:00:13;;;;;;;19.52;17.52;;;;;;;;;;4944916;28;20412;-81
2021/06/25 06:02:39;;;;;;;19.98;17.88;;;;;;;;;;4927438;28;20503;-80
2021/06/25 06:05:06;;;;;;;18.35;16.45;;;;;;;;;;4946871;28;20519;-81
2021/06/25 06:07:32;;;;;;;19.67;17.63;;;;;;;;;;4942840;28;20134;-79
2021/06/25 06:09:58;;;;;;;18.45;16.48;;;;;;;;;;4941092;28;20044;-82
2021/06/25 06:12:24;;;;;;;20.15;17.98;;;;;;;;;;4933567;28;20047;-82
2021/06/25 06:14:51;;;;;;;20.58;17.55;;;;;;;;;;4948670;28;20051;-81
2021/06/25 06:17:19;;;;;;;19.73;17.70;;;;;;;;;;4943568;28;20494;-79
2021/06/25 06:19:48;;;;;;;20.80;18.17;;;;;;;;;;4944748;28;20067;-83
2021/06/25 06:33:22;;;;;;;;;;;;;;;;;;4932469;28;20065;-81
2021/06/25 06:35:49;;;;;;;20.98;18.00;;;;;;;;;;4947720;28;20378;-83
2021/06/25 06:38:16;;;;;;;20.02;17.73;;;;;;;;;;4945992;28;20044;-82
2021/06/25 06:40:42;;;;;;;22.13;18.88;;;;;;;;;;4944466;28;20052;-82
2021/06/25 06:43:09;;;;;;;20.35;17.98;;;;;;;;;;4950090;28;20849;-81
2021/06/25 06:45:36;;;;;;;18.48;16.58;;;;;;;;;;4948617;28;20542;-84
2021/06/25 06:48:02;;;;;;;19.92;17.58;;;;;;;;;;4947502;28;20051;-85
2021/06/25 06:50:29;;;;;;;21.27;18.95;;;;;;;;;;4950376;28;20048;-83
2021/06/25 06:52:55;;;;;;;20.98;18.77;;;;;;;;;;4950170;28;20058;-82
2021/06/25 06:55:22;;;;;;;20.45;17.80;;;;;;;;;;4933720;28;20055;-83
2021/06/25 06:57:48;;;;;;;20.48;18.27;;;;;;;;;;4950487;28;20051;-82
2021/06/25 07:00:17;;;;;;;20.58;17.77;;;;;;;;;;4948650;28;20059;-81
2021/06/25 07:02:44;;;;;;;21.33;17.65;;;;;;;;;;4930274;29;20055;-83
2021/06/25 07:05:15;;;;;;;19.70;17.65;;;;;;;;;;4935284;28;20075;-83
2021/06/25 07:07:44;;;;;;;19.92;17.75;;;;;;;;;;4948907;28;20081;-82
2021/06/25 07:10:10;;;;;;;21.50;18.95;;;;;;;;;;4947025;28;20143;-84
2021/06/25 07:12:39;;;;;;;20.63;18.42;;;;;;;;;;4946349;28;20514;-82
2021/06/25 07:15:06;;;;;;;20.70;18.50;;;;;;;;;;4930941;28;20056;-84
2021/06/25 07:17:32;;;;;;;18.60;16.30;;;;;;;;;;4932747;28;20522;-84
2021/06/25 07:19:58;;;;;;;19.17;17.17;;;;;;;;;;4932525;28;20047;-82
2021/06/25 07:22:25;;;;;;;20.23;17.02;;;;;;;;;;4919434;28;20094;-82
2021/06/25 07:24:52;;;;;;;18.95;16.95;;;;;;;;;;4936483;28;20094;-83
2021/06/25 07:27:18;;;;;;;19.40;16.77;;;;;;;;;;4928714;28;20107;-86
2021/06/25 07:29:44;;;;;;;19.60;15.52;;;;;;;;;;4942548;28;20099;-86
2021/06/25 07:32:10;;;;;;;17.88;15.30;;;;;;;;;;4938908;28;20058;-84
2021/06/25 07:34:37;;;;;;;16.52;14.93;;;;;;;;;;4936315;28;20062;-82
2021/06/25 07:37:04;;;;;;;17.40;15.35;;;;;;;;;;4921677;28;20055;-86
2021/06/25 07:39:30;;;;;;;15.77;14.15;;;;;;;;;;4920427;28;20678;-85
2021/06/25 07:41:56;;;;;;;19.48;14.48;;;;;;;;;;4924451;28;20053;-86
2021/06/25 07:44:23;;;;;;;15.60;13.77;;;;;;;;;;4927623;28;20051;-83
2021/06/25 07:46:50;;;;;;;15.25;13.43;;;;;;;;;;4934114;28;20415;-83
2021/06/25 07:49:16;;;;;;;14.50;12.95;;;;;;;;;;4938927;28;21490;-84
2021/06/25 07:51:42;;;;;;;15.48;13.82;;;;;;;;;;4933398;28;20488;-83
2021/06/25 07:54:08;;;;;;;15.93;14.23;;;;;;;;;;4919078;28;20134;-84
2021/06/25 07:56:34;;;;;;;15.73;13.48;;;;;;;;;;4923706;28;20138;-86
2021/06/25 07:59:01;;;;;;;15.95;14.25;;;;;;;;;;4934591;28;20051;-83
2021/06/25 08:01:30;;;;;;;15.02;13.43;;;;;;;;;;4939561;28;21277;-84
2021/06/25 08:03:56;;;;;;;14.95;13.40;;;;;;;;;;4925677;28;20150;-83
2021/06/25 08:06:22;;;;;;;14.23;12.82;;;;;;;;;;4922374;28;20181;-85
2021/06/25 08:08:49;;;;;;;13.60;12.20;;;;;;;;;;4933166;28;20064;-84
2021/06/25 08:11:15;;;;;;;14.07;12.68;;;;;;;;;;4942686;28;20510;-83
2021/06/25 08:13:41;;;;;;;14.57;13.07;;;;;;;;;;4946951;28;20055;-83
2021/06/25 08:16:07;;;;;;;15.52;12.80;;;;;;;;;;4942331;28;20050;-87
2021/06/25 08:18:36;;;;;;;13.45;11.63;;;;;;;;;;4934006;28;20047;-84
2021/06/25 08:21:02;;;;;;;14.07;12.57;;;;;;;;;;4931206;28;20055;-82
2021/06/25 08:23:29;;;;;;;14.30;11.80;;;;;;;;;;4930048;29;20454;-82
2021/06/25 08:25:55;;;;;;;12.43;11.05;;;;;;;;;;4937069;28;20510;-83
2021/06/25 08:28:24;;;;;;;13.57;11.57;;;;;;;;;;4963991;28;20058;-83
2021/06/25 08:30:50;;;;;;;12.00;10.73;;;;;;;;;;4942497;28;20071;-83
2021/06/25 08:33:16;;;;;;;13.23;10.68;;;;;;;;;;4930129;28;20039;-83
2021/06/25 08:35:43;;;;;;;12.50;11.20;;;;;;;;;;4917623;29;20051;-83
2021/06/25 08:38:15;;;;;;;11.98;10.73;;;;;;;;;;4946046;28;20055;-83
2021/06/25 08:40:41;;;;;;;13.52;12.13;;;;;;;;;;4946223;28;20566;-82
2021/06/25 08:43:08;;;;;;;12.02;10.82;;;;;;;;;;4931200;28;20106;-84
2021/06/25 08:45:34;;;;;;;12.70;11.25;;;;;;;;;;4936120;28;20044;-81
2021/06/25 08:48:01;;;;;;;13.43;11.77;;;;;;;;;;4930909;29;20076;-82
2021/06/25 08:50:29;;;;;;;12.85;11.45;;;;;;;;;;4936881;28;20047;-82
2021/06/25 08:52:55;;;;;;;14.43;11.75;;;;;;;;;;4945652;28;20075;-82
2021/06/25 08:55:22;;;;;;;13.57;11.15;;;;;;;;;;4946463;28;20047;-82
2021/06/25 08:57:48;;;;;;;13.00;11.70;;;;;;;;;;4931437;29;20047;-84
2021/06/25 09:00:15;;;;;;;13.63;11.00;;;;;;;;;;4946764;28;20067;-83
2021/06/25 09:02:42;;;;;;;12.75;11.40;;;;;;;;;;4930298;28;20055;-83
2021/06/25 09:05:23;;;;;;;13.18;11.70;;;;;;;;;;4948029;28;20403;-87
2021/06/25 09:07:50;;;;;;;14.30;12.88;;;;;;;;;;4930079;28;20055;-83
2021/06/25 09:10:28;;;;;;;13.73;11.82;;;;;;;;;;4926062;29;20401;-83
2021/06/25 09:13:09;;;;;;;14.10;12.60;;;;;;;;;;4947068;28;20133;-83
2021/06/25 09:15:37;;;;;;;14.40;12.85;;;;;;;;;;4932059;28;20126;-83
2021/06/25 09:18:05;;;;;;;15.07;13.15;;;;;;;;;;4945373;28;20050;-83
2021/06/25 09:20:44;;;;;;;15.02;12.85;;;;;;;;;;4948686;28;20054;-82
2021/06/25 09:23:21;;;;;;;14.80;13.23;;;;;;;;;;4930708;29;20047;-82
2021/06/25 09:26:09;;;;;;;16.05;13.70;;;;;;;;;;4944631;28;20087;-84
2021/06/25 09:28:35;;;;;;;14.95;13.35;;;;;;;;;;4917790;28;20202;-82
2021/06/25 09:31:22;;;;;;;16.73;15.02;;;;;;;;;;4928657;29;20051;-82
2021/06/25 09:33:53;;;;;;;17.65;15.50;;;;;;;;;;4933625;28;20047;-83
2021/06/25 09:36:24;;;;;;;18.15;16.30;;;;;;;;;;4922770;29;20069;-83
2021/06/25 09:38:57;;;;;;;17.02;14.98;;;;;;;;;;4946838;28;20058;-87
2021/06/25 09:41:23;;;;;;;16.73;14.93;;;;;;;;;;4949086;28;20047;-82
2021/06/25 09:43:53;;;;;;;17.00;15.27;;;;;;;;;;4927904;29;20051;-87
2021/06/25 09:46:45;;;;;;;16.10;14.40;;;;;;;;;;4932433;28;20059;-84
2021/06/25 09:49:15;;;;;;;16.90;14.27;;;;;;;;;;4915799;28;20070;-82
2021/06/25 09:51:53;;;;;;;15.23;13.73;;;;;;;;;;4929242;29;20064;-84
2021/06/25 09:54:19;;;;;;;16.02;14.38;;;;;;;;;;4942250;28;20067;-83
2021/06/25 09:56:50;;;;;;;18.30;14.95;;;;;;;;;;4928449;28;20126;-84
2021/06/25 10:02:18;;;;;;;17.08;15.23;;;;;;;;;;4932228;28;20142;-83
2021/06/25 10:04:45;;;;;;;17.67;15.85;;;;;;;;;;4929613;29;20187;-83
2021/06/25 10:07:15;;;;;;;18.50;15.93;;;;;;;;;;4941785;28;20102;-83
2021/06/25 10:09:42;;;;;;;18.58;16.67;;;;;;;;;;4947981;28;20062;-82
2021/06/25 10:12:10;;;;;;;19.08;17.08;;;;;;;;;;4944443;28;20465;-81
2021/06/25 10:14:37;;;;;;;18.92;17.02;;;;;;;;;;4944811;28;20043;-82
2021/06/25 10:17:05;;;;;;;18.33;16.50;;;;;;;;;;4949646;28;20090;-83
2021/06/25 10:19:32;;;;;;;18.88;16.15;;;;;;;;;;4950594;28;20574;-83
2021/06/25 10:22:02;;;;;;;17.98;16.17;;;;;;;;;;4944696;28;20226;-84
2021/06/25 10:24:29;;;;;;;17.70;15.90;;;;;;;;;;4937185;28;20051;-86
2021/06/25 10:26:56;;;;;;;17.90;15.80;;;;;;;;;;4950928;28;20105;-84
2021/06/25 10:29:22;;;;;;;18.63;16.67;;;;;;;;;;4949033;28;20052;-83
2021/06/25 10:31:48;;;;;;;19.95;16.13;;;;;;;;;;4948792;28;20066;-85
2021/06/25 10:34:15;;;;;;;21.92;17.77;;;;;;;;;;4950504;28;20057;-86
2021/06/25 10:36:42;;;;;;;20.50;17.90;;;;;;;;;;4949000;28;20133;-83
2021/06/25 10:39:09;;;;;;;18.90;15.85;;;;;;;;;;4938237;28;20051;-85
2021/06/25 10:41:48;;;;;;;18.48;16.10;;;;;;;;;;4949197;28;20495;-85
2021/06/25 10:44:34;;;;;;;20.75;18.55;;;;;;;;;;4933603;29;20998;-84
2021/06/25 10:47:21;;;;;;;21.05;18.90;;;;;;;;;;4946228;28;20129;-84
2021/06/25 10:50:00;;;;;;;20.88;18.67;;;;;;;;;;4940599;28;20396;-85
2021/06/25 10:52:36;;;;;;;20.23;18.20;;;;;;;;;;4949256;28;20039;-85
2021/06/25 10:55:09;;;;;;;22.63;19.95;;;;;;;;;;4949858;28;20063;-84
2021/06/25 10:57:36;;;;;;;20.73;18.52;;;;;;;;;;4934074;29;20059;-84
2021/06/25 11:00:05;;;;;;;22.95;20.33;;;;;;;;;;4947811;28;20495;-82
2021/06/25 11:02:44;;;;;;;25.13;21.75;;;;;;;;;;4926630;29;20055;-83
2021/06/25 11:05:19;;;;;;;24.55;21.60;;;;;;;;;;4943422;28;20062;-84
2021/06/25 11:07:46;;;;;;;24.17;21.38;;;;;;;;;;4930295;29;20388;-82
2021/06/25 11:10:20;;;;;;;24.23;19.92;;;;;;;;;;4936470;28;20737;-83
2021/06/25 11:12:46;;;;;;;;;;;;;;;;;;4951304;28;20409;-83
2021/06/25 11:15:12;;;;;;;22.17;19.75;;;;;;;;;;4948249;28;19918;-83
2021/06/25 11:17:45;;;;;;;23.65;20.70;;;;;;;;;;4933162;28;20133;-83
2021/06/25 11:20:30;;;;;;;24.17;21.55;;;;;;;;;;4932335;28;20055;-84
2021/06/25 11:22:58;;;;;;;23.67;21.17;;;;;;;;;;4932525;29;20051;-83
2021/06/25 11:25:33;;;;;;;23.95;20.95;;;;;;;;;;4947233;28;20043;-82
2021/06/25 11:28:15;;;;;;;22.83;20.42;;;;;;;;;;4943870;28;20051;-82
2021/06/25 11:30:51;;;;;;;22.08;19.67;;;;;;;;;;4934135;28;20058;-83
2021/06/25 11:33:25;;;;;;;25.85;21.20;;;;;;;;;;4950543;28;20053;-83
2021/06/25 11:35:51;;;;;;;24.33;20.67;;;;;;;;;;4929303;29;20048;-83
2021/06/25 11:38:18;;;;;;;28.75;20.75;;;;;;;;;;4936475;28;20039;-84
2021/06/25 11:40:48;;;;;;;25.77;21.48;;;;;;;;;;4949891;28;20098;-82
2021/06/25 11:43:15;;;;;;;28.05;21.17;;;;;;;;;;4946107;28;20214;-82
2021/06/25 11:45:46;;;;;;;23.10;20.60;;;;;;;;;;4948466;28;20047;-82
2021/06/25 11:48:13;;;;;;;26.67;21.45;;;;;;;;;;4949199;28;20047;-83
2021/06/25 11:50:40;;;;;;;26.25;22.88;;;;;;;;;;4921995;28;20736;-82
2021/06/25 11:53:06;;;;;;;27.15;22.85;;;;;;;;;;4945084;28;20142;-84
2021/06/25 11:55:32;;;;;;;24.88;21.00;;;;;;;;;;4929156;28;21231;-83
2021/06/25 11:57:58;;;;;;;24.63;20.80;;;;;;;;;;4953666;28;20138;-82
2021/06/25 12:00:27;;;;;;;25.60;22.40;;;;;;;;;;4932089;28;20059;-82
2021/06/25 12:03:02;;;;;;;24.52;21.98;;;;;;;;;;4932950;28;20054;-86
2021/06/25 12:05:28;;;;;;;;;;;;;;;;;;4950403;28;20055;-83
2021/06/25 12:08:01;;;;;;;24.77;21.48;;;;;;;;;;4946448;28;19922;-86
2021/06/25 12:10:28;;;;;;;26.08;21.40;;;;;;;;;;4948538;28;20502;-83
2021/06/25 12:12:58;;;;;;;25.92;22.58;;;;;;;;;;4947426;28;20562;-86
2021/06/25 12:15:25;;;;;;;23.98;21.30;;;;;;;;;;4948607;28;20102;-83
2021/06/25 12:17:53;;;;;;;26.63;23.00;;;;;;;;;;4944809;28;20043;-82
2021/06/25 12:20:19;;;;;;;23.88;20.77;;;;;;;;;;4936400;28;20055;-83
2021/06/25 12:22:48;;;;;;;24.85;22.05;;;;;;;;;;4927055;29;20055;-83
2021/06/25 12:25:14;;;;;;;27.17;24.05;;;;;;;;;;4929723;28;20157;-83
2021/06/25 12:27:42;;;;;;;24.35;21.75;;;;;;;;;;4949012;28;20183;-82
2021/06/25 12:30:13;;;;;;;26.83;21.52;;;;;;;;;;4903723;28;20052;-85
2021/06/25 12:32:40;;;;;;;25.60;22.95;;;;;;;;;;4937914;28;20067;-82
2021/06/25 12:35:06;;;;;;;26.95;23.50;;;;;;;;;;4946416;28;20039;-83
2021/06/25 12:37:52;;;;;;;27.10;24.20;;;;;;;;;;4921346;28;20921;-86
2021/06/25 12:40:38;;;;;;;29.83;23.88;;;;;;;;;;4933767;28;20412;-83
2021/06/25 12:43:04;;;;;;;26.95;22.38;;;;;;;;;;4914258;28;20057;-85
2021/06/25 12:45:37;;;;;;;29.42;24.30;;;;;;;;;;4947841;28;20439;-85
2021/06/25 12:48:08;;;;;;;27.25;24.35;;;;;;;;;;4944190;28;20051;-83
2021/06/25 12:50:36;;;;;;;27.88;24.02;;;;;;;;;;4930869;28;20415;-84
2021/06/25 12:53:11;;;;;;;30.40;23.70;;;;;;;;;;4930785;28;20424;-83
2021/06/25 12:55:38;;;;;;;28.77;24.27;;;;;;;;;;4945276;28;20070;-83
2021/06/25 12:58:04;;;;;;;28.20;25.08;;;;;;;;;;4927821;28;20066;-82
2021/06/25 13:00:30;;;;;;;29.70;26.55;;;;;;;;;;4930041;28;20399;-81
2021/06/25 13:02:57;;;;;;;31.38;26.77;;;;;;;;;;4945585;28;20110;-87
2021/06/25 13:05:36;;;;;;;29.92;26.52;;;;;;;;;;4931848;28;20143;-82
2021/06/25 13:08:14;;;;;;;30.02;26.83;;;;;;;;;;4947528;28;20490;-81
2021/06/25 13:10:40;;;;;;;31.52;27.48;;;;;;;;;;4937758;28;20047;-81
2021/06/25 13:13:23;;;;;;;29.17;26.05;;;;;;;;;;4949441;28;20055;-82
2021/06/25 13:15:56;;;;;;;30.02;26.92;;;;;;;;;;4949630;28;20043;-84
2021/06/25 13:18:24;;;;;;;30.40;26.65;;;;;;;;;;4948058;28;20094;-82
2021/06/25 13:21:09;;;;;;;33.40;27.00;;;;;;;;;;4948613;28;20446;-83
2021/06/25 13:23:37;;;;;;;29.80;26.60;;;;;;;;;;4934702;28;20051;-83
2021/06/25 13:26:14;;;;;;;33.40;28.27;;;;;;;;;;4947094;28;20051;-82
2021/06/25 13:28:54;;;;;;;34.28;28.27;;;;;;;;;;4949997;28;20462;-84
2021/06/25 13:31:20;;;;;;;34.97;27.27;;;;;;;;;;4946277;28;20069;-82
2021/06/25 13:33:47;;;;;;;34.45;28.25;;;;;;;;;;4950829;28;20047;-86
2021/06/25 13:36:13;;;;;;;32.60;29.05;;;;;;;;;;4946092;28;20059;-81
2021/06/25 13:38:39;;;;;;;31.90;28.52;;;;;;;;;;4944675;28;20067;-81
2021/06/25 13:41:24;;;;;;;31.70;28.40;;;;;;;;;;4942722;28;20047;-88
2021/06/25 13:43:57;;;;;;;34.20;30.00;;;;;;;;;;4931154;28;20502;-85
2021/06/25 13:46:28;;;;;;;32.60;29.05;;;;;;;;;;4927705;28;20066;-83
2021/06/25 13:49:01;;;;;;;34.72;29.42;;;;;;;;;;4943725;28;20051;-83
2021/06/25 13:51:28;;;;;;;33.50;29.80;;;;;;;;;;4950061;28;20066;-83
2021/06/25 13:53:54;;;;;;;33.00;29.45;;;;;;;;;;4952625;28;20053;-83
2021/06/25 13:56:24;;;;;;;36.22;30.75;;;;;;;;;;4933427;28;20069;-83
2021/06/25 13:59:00;;;;;;;34.72;31.13;;;;;;;;;;4948184;28;20051;-83
2021/06/25 14:01:28;;;;;;;34.47;30.85;;;;;;;;;;4955119;28;20391;-83
2021/06/25 14:03:55;;;;;;;36.15;31.50;;;;;;;;;;4949660;28;20164;-83
2021/06/25 14:06:21;;;;;;;37.47;32.35;;;;;;;;;;4952617;28;20385;-83
2021/06/25 14:08:47;;;;;;;38.08;33.67;;;;;;;;;;4951249;28;20228;-82
2021/06/25 14:11:18;;;;;;;37.40;33.15;;;;;;;;;;4926789;28;20047;-83
2021/06/25 14:13:46;;;;;;;40.65;35.55;;;;;;;;;;4949155;28;20411;-84
2021/06/25 14:16:29;;;;;;;41.22;35.60;;;;;;;;;;4955467;28;20070;-84
2021/06/25 14:18:59;;;;;;;39.22;34.00;;;;;;;;;;4930995;28;20051;-83
2021/06/25 14:21:27;;;;;;;43.58;36.00;;;;;;;;;;4924163;28;20090;-82
2021/06/25 14:23:53;;;;;;;41.55;34.97;;;;;;;;;;4932235;28;20054;-84
2021/06/25 14:26:24;;;;;;;42.85;36.63;;;;;;;;;;4952297;28;20051;-85
2021/06/25 14:28:51;;;;;;;45.22;36.83;;;;;;;;;;4930851;28;20769;-82
2021/06/25 14:31:17;;;;;;;46.47;38.80;;;;;;;;;;4931201;28;20065;-84
2021/06/25 14:33:46;;;;;;;46.15;38.88;;;;;;;;;;4934011;28;20051;-84
2021/06/25 14:36:13;;;;;;;51.17;40.00;;;;;;;;;;4946296;28;20055;-82
2021/06/25 14:38:40;;;;;;;48.53;40.35;;;;;;;;;;4950979;28;20067;-84